Friday, October 31, 2014, 12:59 PM EDT

KMUI, Muir Army Air Field / Indiantown

Location: Jonestown, PA, United States Lat: 40.433
Local Time: 12:59 PM EDT (16:59 GMT) Lon: -76.567
Time Zone: US/Eastern Elev: 488 ft

Show me the last for .
Show Decoded

2014-10-31 11:58 METAR KMUI 311558Z AUTO 06005KT 10SM OVC055 09/01 A2998 RMK AO2 SLP157 T00930010
                 $ =
2014-10-31 10:58 METAR KMUI 311458Z AUTO VRB02KT 10SM OVC055 08/01 A2999 RMK AO2 SLP161 T00790014
                 58007 $ =
2014-10-31 09:58 METAR KMUI 311358Z AUTO 36001KT 10SM OVC055 07/01 A3001 RMK AO2 SLP168 T00710013
                 $ =
2014-10-31 08:58 METAR KMUI 311258Z AUTO 08001KT 10SM OVC055 06/02 A3003 RMK AO2 SLP175 T00590023
                 $ =
2014-10-31 07:58 METAR KMUI 311158Z AUTO 08004KT 10SM OVC055 05/03 A3001 RMK AO2 SLP168 7////
                 T00510031 10070 20051 58000 =
2014-10-31 06:58 METAR KMUI 311058Z AUTO 00000KT 10SM OVC055 06/03 A3002 RMK AO2 SLP171 T00570028
                 =
2014-10-31 05:58 METAR KMUI 310958Z AUTO 06002KT 10SM OVC055 06/04 A3002 RMK AO2 SLP171 T00550037
                 =
2014-10-31 04:58 METAR KMUI 310858Z AUTO 00000KT 10SM OVC055 06/04 A3002 RMK AO2 SLP170 T00630037
                 57003 =
2014-10-31 02:58 METAR KMUI 310658Z AUTO 12002KT 10SM OVC050 07/04 A3002 RMK AO2 SLP170 T00690039
                 =
2014-10-31 01:58 METAR KMUI 310558Z AUTO 00000KT 10SM OVC050 07/04 A3003 RMK AO2 SLP173 T00670039
                 10099 20064 58002 =
2014-10-31 00:58 METAR KMUI 310458Z AUTO 00000KT 10SM OVC050 07/03 A3004 RMK AO2 SLP177 T00720034
                 401300019 =
2014-10-30 23:58 METAR KMUI 310358Z AUTO 35002KT 10SM OVC050 07/03 A3003 RMK AO2 SLPNO T00680034
                 =
2014-10-30 22:58 METAR KMUI 310258Z AUTO 00000KT 10SM BKN055 07/03 A3003 RMK AO2 SLPNO T00700033
                 50000 =
2014-10-30 21:58 METAR KMUI 310158Z AUTO 00000KT 10SM OVC055 07/03 A3004 RMK AO2 SLPNO T00710034
                 =
2014-10-30 20:58 METAR KMUI 310058Z AUTO 02002KT 10SM OVC055 08/03 A3003 RMK AO2 SLP174 T00790031
                 =
2014-10-30 19:58 METAR KMUI 302358Z AUTO 30001KT 10SM OVC055 09/03 A3003 RMK AO2 SLP174 T00940025
                 10130 20093 50004 =
2014-10-30 18:58 METAR KMUI 302258Z AUTO 00000KT 10SM OVC050 10/03 A3004 RMK AO2 SLP177 T01020028
                 =
2014-10-30 17:58 METAR KMUI 302158Z AUTO VRB03KT 10SM OVC055 11/01 A3002 RMK AO2 SLP170 T01140008
                 =
2014-10-30 16:58 METAR KMUI 302058Z AUTO 28005KT 10SM OVC050 12/01 A3002 RMK AO2 SLP171 T01200013
                 55000 =
2014-10-30 15:58 METAR KMUI 301958Z AUTO VRB02KT 10SM SCT047 BKN055 12/01 A3001 RMK AO2 SLP167
                 T01220013 =
2014-10-30 14:58 METAR KMUI 301858Z AUTO 01004KT 10SM BKN055 12/01 A3001 RMK AO2 SLP167 T01240014
                 =
2014-10-30 13:58 METAR KMUI 301758Z AUTO 35012G15KT 10SM OVC060 12/03 A3002 RMK AO2 SLP170 6////
                 T01230030 =

Support USWX by starting your Amazon purchase here.